B3028 ZGGG-ZYTL
Flight info
| Callsign | B3028 |
|---|---|
| Flight time | N/A |
| Altitude | 37100 |
| Route | LMN9 LMN G471 XEBUL DCT ODOPI DCT AKAVO DCT DST W117 BEGMO W13 PINOT B221 XDX DCT URBAD W172 IGDEG W173 NIXEP NIX19A |
| Aircraft | CL60/M-SBDE1E2E3FGHIJ1J4J5J7M3RWXYZ/LB1V1D1 |
Departure
| Time | 2026-05-04 06:20 |
|---|---|
| Airport | Guangzhou Baiyun International Airport (ZGGG) |
Arrival
| Time | N/A |
|---|---|
| Airport | Dalian Zhoushuizi International Airport (ZYTL) |
| Time | Latitude | Longitude | Altitude | Speed | Heading |
|---|---|---|---|---|---|
| 2026-05-04 05:39 | 23.38263 | 113.29050 | 50 ft | 0 kts | 14° |
| 2026-05-04 06:11 | 23.38252 | 113.29047 | 50 ft | 2 kts | 14° |
| 2026-05-04 06:13 | 23.38202 | 113.29071 | 50 ft | 0 kts | 283° |
| 2026-05-04 06:15 | 23.38203 | 113.29066 | 50 ft | 3 kts | 283° |
| 2026-05-04 06:15 | 23.38214 | 113.29018 | 50 ft | 9 kts | 285° |
| 2026-05-04 06:15 | 23.38230 | 113.28953 | 50 ft | 6 kts | 284° |
| 2026-05-04 06:15 | 23.38238 | 113.28890 | 50 ft | 10 kts | 257° |
| 2026-05-04 06:16 | 23.38186 | 113.28848 | 50 ft | 9 kts | 230° |
| 2026-05-04 06:16 | 23.38187 | 113.28770 | 50 ft | 12 kts | 284° |
| 2026-05-04 06:16 | 23.38185 | 113.28673 | 50 ft | 15 kts | 205° |
| 2026-05-04 06:16 | 23.38072 | 113.28644 | 50 ft | 18 kts | 192° |
| 2026-05-04 06:17 | 23.37940 | 113.28609 | 50 ft | 20 kts | 194° |
| 2026-05-04 06:17 | 23.37901 | 113.28598 | 50 ft | 6 kts | 194° |
| 2026-05-04 06:17 | 23.37848 | 113.28583 | 50 ft | 9 kts | 194° |
| 2026-05-04 06:17 | 23.37771 | 113.28562 | 50 ft | 13 kts | 194° |
| 2026-05-04 06:18 | 23.37676 | 113.28530 | 50 ft | 14 kts | 229° |
| 2026-05-04 06:18 | 23.37685 | 113.28437 | 50 ft | 10 kts | 287° |
| 2026-05-04 06:18 | 23.37724 | 113.28371 | 50 ft | 11 kts | 346° |
| 2026-05-04 06:20 | 23.42846 | 113.29105 | 3310 ft | 187 kts | 340° |
| 2026-05-04 06:20 | 23.43872 | 113.28111 | 4075 ft | 211 kts | 295° |
| 2026-05-04 06:21 | 23.47370 | 113.25770 | 7981 ft | 232 kts | 357° |
| 2026-05-04 06:21 | 23.49023 | 113.25771 | 8786 ft | 247 kts | 349° |
| 2026-05-04 06:22 | 23.50798 | 113.25482 | 9422 ft | 261 kts | 341° |
| 2026-05-04 06:22 | 23.52562 | 113.24891 | 9832 ft | 276 kts | 335° |